createdAt,value
2022-07-27T00:00:58.894Z,24.00
2022-07-27T00:03:26.515Z,24.00
2022-07-27T00:05:53.889Z,24.00
2022-07-27T00:08:23.794Z,24.00
2022-07-27T00:10:52.521Z,23.90
2022-07-27T00:13:20.296Z,24.30
2022-07-27T00:15:47.717Z,23.80
2022-07-27T00:18:15.104Z,24.40
2022-07-27T00:20:42.629Z,24.20
2022-07-27T00:23:10.157Z,23.60
2022-07-27T00:25:37.530Z,23.50
2022-07-27T00:28:05.430Z,23.50
2022-07-27T00:30:33.427Z,23.70
2022-07-27T00:33:00.704Z,23.50
2022-07-27T00:35:28.015Z,23.50
2022-07-27T00:37:55.468Z,23.50
2022-07-27T00:40:23.786Z,23.40
2022-07-27T00:42:51.348Z,23.30
2022-07-27T00:45:18.755Z,23.30
2022-07-27T00:47:46.058Z,23.80
2022-07-27T00:50:13.634Z,23.20
2022-07-27T00:52:42.412Z,23.20
2022-07-27T00:55:09.854Z,23.30
2022-07-27T00:57:58.983Z,23.10
2022-07-27T01:00:24.874Z,23.00
2022-07-27T01:02:53.012Z,23.00
2022-07-27T01:05:20.629Z,23.00
2022-07-27T01:07:49.371Z,22.90
2022-07-27T01:10:18.073Z,22.90
2022-07-27T01:12:46.623Z,22.80
2022-07-27T01:15:14.387Z,22.80
2022-07-27T01:17:41.735Z,22.90
2022-07-27T01:20:09.380Z,23.40
2022-07-27T01:22:36.734Z,22.70
2022-07-27T01:25:04.337Z,22.90
2022-07-27T01:27:31.699Z,22.60
2022-07-27T01:29:59.074Z,23.30
2022-07-27T01:32:26.398Z,22.70
2022-07-27T01:34:53.886Z,22.70
2022-07-27T01:37:21.255Z,22.60
2022-07-27T01:39:48.586Z,22.60
2022-07-27T01:42:16.396Z,22.60
2022-07-27T01:44:43.719Z,23.00
2022-07-27T01:47:14.165Z,22.50
2022-07-27T01:49:42.321Z,23.10
2022-07-27T01:52:09.660Z,22.50
2022-07-27T01:54:37.139Z,22.50
2022-07-27T01:57:04.759Z,23.20
2022-07-27T01:59:32.074Z,22.50
2022-07-27T02:02:04.830Z,22.50
2022-07-27T02:04:32.351Z,22.50
2022-07-27T02:06:59.714Z,22.70
2022-07-27T02:09:27.039Z,23.00
2022-07-27T02:12:12.900Z,23.20
2022-07-27T02:14:40.233Z,22.60
2022-07-27T02:17:07.653Z,22.60
2022-07-27T02:19:37.495Z,22.50
2022-07-27T02:22:04.830Z,22.50
2022-07-27T02:24:32.162Z,22.50
2022-07-27T02:26:59.499Z,22.50
2022-07-27T02:29:26.850Z,22.50
2022-07-27T02:31:54.181Z,22.40
2022-07-27T02:34:21.580Z,23.20
2022-07-27T02:36:49.347Z,22.40
2022-07-27T02:39:16.724Z,22.40
2022-07-27T02:41:46.365Z,22.30
2022-07-27T02:44:14.613Z,22.30
2022-07-27T02:46:42.027Z,22.90
2022-07-27T02:49:09.753Z,22.10
2022-07-27T02:51:37.394Z,22.60
2022-07-27T02:54:06.961Z,22.00
2022-07-27T02:56:34.332Z,21.90
2022-07-27T02:59:01.712Z,21.90
2022-07-27T03:01:29.155Z,21.80
2022-07-27T03:03:56.945Z,21.90
2022-07-27T03:06:24.508Z,22.10
2022-07-27T03:08:51.942Z,21.80
2022-07-27T03:11:19.275Z,21.80
2022-07-27T03:13:46.729Z,21.80
2022-07-27T03:16:14.145Z,22.10
2022-07-27T03:18:41.548Z,22.40
2022-07-27T03:21:09.245Z,21.70
2022-07-27T03:23:36.617Z,21.60
2022-07-27T03:26:04.370Z,21.60
2022-07-27T03:28:31.972Z,21.70
2022-07-27T03:30:59.693Z,21.60
2022-07-27T03:33:27.325Z,21.60
2022-07-27T03:35:54.631Z,21.60
2022-07-27T03:38:23.104Z,21.50
2022-07-27T03:40:50.511Z,21.50
2022-07-27T03:43:17.921Z,21.50
2022-07-27T03:45:45.496Z,21.60
2022-07-27T03:48:13.039Z,22.20
2022-07-27T03:50:40.502Z,21.50
2022-07-27T03:53:52.552Z,21.50
2022-07-27T03:56:19.929Z,21.50
2022-07-27T03:58:47.309Z,21.90
2022-07-27T04:01:14.660Z,21.40
2022-07-27T04:03:44.356Z,21.40
2022-07-27T04:06:11.955Z,21.40
2022-07-27T04:08:39.690Z,21.90
2022-07-27T04:11:07.793Z,21.90
2022-07-27T04:13:38.753Z,21.80
2022-07-27T04:16:06.077Z,21.40
2022-07-27T04:18:33.456Z,21.40
2022-07-27T04:21:03.280Z,21.40
2022-07-27T04:23:33.691Z,21.40
2022-07-27T04:26:05.283Z,21.40
2022-07-27T04:28:32.998Z,21.30
2022-07-27T04:31:00.565Z,21.30
2022-07-27T04:33:28.082Z,21.30
2022-07-27T04:35:55.867Z,21.50
2022-07-27T04:41:44.987Z,21.20
2022-07-27T04:44:12.379Z,21.20
2022-07-27T04:46:39.877Z,21.20
2022-07-27T04:49:07.614Z,21.60
2022-07-27T04:51:35.356Z,21.60
2022-07-27T04:54:41.348Z,21.60
2022-07-27T04:57:09.146Z,21.00
2022-07-27T04:59:37.209Z,21.00
2022-07-27T05:02:05.120Z,20.60
2022-07-27T05:04:34.245Z,20.90
2022-07-27T05:07:01.724Z,21.70
2022-07-27T05:09:29.310Z,21.10
2022-07-27T05:11:57.017Z,21.10
2022-07-27T05:14:24.760Z,21.30
2022-07-27T05:16:52.482Z,21.50
2022-07-27T05:19:20.024Z,21.60
2022-07-27T05:21:47.577Z,21.10
2022-07-27T05:24:15.045Z,21.20
2022-07-27T05:26:44.490Z,21.20
2022-07-27T05:29:12.451Z,21.30
2022-07-27T05:31:40.100Z,21.20
2022-07-27T05:34:07.542Z,21.10
2022-07-27T05:36:34.956Z,21.20
2022-07-27T05:39:02.514Z,21.20
2022-07-27T05:41:29.814Z,21.20
2022-07-27T05:43:57.253Z,21.30
2022-07-27T05:46:27.347Z,21.90
2022-07-27T05:48:57.088Z,21.50
2022-07-27T05:51:24.557Z,21.40
2022-07-27T05:53:51.981Z,21.60
2022-07-27T05:56:19.539Z,21.80
2022-07-27T05:58:47.002Z,21.70
2022-07-27T06:01:14.583Z,22.00
2022-07-27T06:03:42.812Z,21.40
2022-07-27T06:06:29.319Z,21.00
2022-07-27T06:08:56.883Z,21.40
2022-07-27T06:11:26.859Z,22.10
2022-07-27T06:13:55.861Z,21.80
2022-07-27T06:16:23.922Z,22.30
2022-07-27T06:18:51.504Z,22.20
2022-07-27T06:21:19.845Z,22.40
2022-07-27T06:23:48.397Z,22.30
2022-07-27T06:26:16.150Z,22.70
2022-07-27T06:28:43.494Z,22.30
2022-07-27T06:31:11.081Z,22.40
2022-07-27T06:33:39.024Z,22.90
2022-07-27T06:36:08.302Z,22.70
2022-07-27T06:38:35.805Z,23.10
2022-07-27T06:41:03.907Z,23.00
2022-07-27T06:43:32.816Z,23.10
2022-07-27T06:46:00.585Z,23.20
2022-07-27T06:48:28.016Z,23.60
2022-07-27T06:50:56.182Z,24.00
2022-07-27T06:53:24.358Z,23.70
2022-07-27T06:55:52.429Z,24.50
2022-07-27T06:58:22.170Z,24.10
2022-07-27T07:00:49.562Z,24.30
2022-07-27T07:03:16.925Z,24.60
2022-07-27T07:05:46.526Z,24.40
2022-07-27T07:08:14.569Z,24.60
2022-07-27T07:10:44.205Z,24.70
2022-07-27T07:13:12.002Z,25.00
2022-07-27T07:15:40.990Z,25.40
2022-07-27T07:18:10.000Z,25.10
2022-07-27T07:20:38.460Z,25.30
2022-07-27T07:23:06.552Z,25.70
2022-07-27T07:25:34.636Z,25.70
2022-07-27T07:28:02.390Z,26.20
2022-07-27T07:30:29.867Z,26.50
2022-07-27T07:32:57.890Z,26.80
2022-07-27T07:35:26.043Z,27.40
2022-07-27T07:37:53.430Z,27.90
2022-07-27T07:43:08.900Z,27.90
2022-07-27T07:45:38.206Z,28.40
2022-07-27T07:48:14.576Z,28.80
2022-07-27T07:50:42.086Z,29.20
2022-07-27T07:53:09.556Z,29.10
2022-07-27T07:55:37.100Z,29.50
2022-07-27T07:58:04.646Z,29.50
2022-07-27T08:00:32.154Z,29.50
2022-07-27T08:02:59.623Z,29.50
2022-07-27T08:05:27.390Z,29.80
2022-07-27T08:07:55.047Z,30.20
2022-07-27T08:10:23.150Z,31.00
2022-07-27T08:12:54.163Z,30.60
2022-07-27T08:15:22.076Z,30.80
2022-07-27T08:18:04.283Z,31.00
2022-07-27T08:20:31.744Z,31.40
2022-07-27T08:22:59.187Z,31.60
2022-07-27T08:25:26.538Z,31.90
2022-07-27T08:27:55.381Z,32.20
2022-07-27T08:30:24.149Z,33.00
2022-07-27T08:32:59.789Z,32.80
2022-07-27T08:35:28.686Z,33.00
2022-07-27T08:37:56.728Z,33.20
2022-07-27T08:40:51.064Z,33.20
2022-07-27T08:43:24.930Z,33.30
2022-07-27T08:45:58.214Z,33.20
2022-07-27T08:48:27.123Z,32.90
2022-07-27T08:50:55.648Z,32.70
2022-07-27T08:53:24.567Z,32.50
2022-07-27T08:55:52.071Z,32.80
2022-07-27T08:58:19.833Z,31.90
2022-07-27T09:00:49.949Z,31.80
2022-07-27T09:03:21.181Z,31.80
2022-07-27T09:05:57.813Z,31.80
2022-07-27T09:08:30.546Z,31.80
2022-07-27T09:10:59.991Z,31.90
2022-07-27T09:13:27.549Z,31.90
2022-07-27T09:18:46.836Z,32.10
2022-07-27T09:21:21.681Z,32.20
2022-07-27T09:24:23.441Z,32.40
2022-07-27T09:27:04.144Z,32.60
2022-07-27T09:29:36.053Z,32.70
2022-07-27T09:32:16.515Z,32.60
2022-07-27T09:34:44.402Z,32.60
2022-07-27T09:37:12.280Z,32.60
2022-07-27T09:39:39.794Z,32.70
2022-07-27T09:43:05.656Z,33.30
2022-07-27T09:45:34.104Z,33.40
2022-07-27T09:48:13.692Z,32.80
2022-07-27T09:51:27.746Z,32.90
2022-07-27T09:53:54.646Z,32.80
2022-07-27T09:56:27.235Z,32.50
2022-07-27T09:58:59.783Z,32.40
2022-07-27T10:01:30.906Z,32.20
2022-07-27T10:04:00.490Z,32.00
2022-07-27T10:06:28.573Z,31.70
2022-07-27T10:08:57.491Z,31.40
2022-07-27T10:11:25.768Z,31.20
2022-07-27T10:13:55.029Z,31.00
2022-07-27T10:16:24.893Z,30.80
2022-07-27T10:19:15.886Z,30.70
2022-07-27T10:21:47.625Z,31.20
2022-07-27T10:24:32.079Z,30.50
2022-07-27T10:26:59.627Z,30.40
2022-07-27T10:29:26.968Z,30.20
2022-07-27T10:31:54.411Z,30.10
2022-07-27T10:34:38.250Z,30.00
2022-07-27T10:37:39.091Z,29.90
2022-07-27T10:40:26.669Z,29.80
2022-07-27T10:43:28.990Z,29.70
2022-07-27T10:46:01.958Z,29.60
2022-07-27T10:48:48.745Z,29.60
2022-07-27T10:51:32.347Z,29.50
2022-07-27T10:54:14.994Z,29.60
2022-07-27T10:56:47.402Z,29.90
2022-07-27T10:59:15.207Z,29.60
2022-07-27T11:01:57.740Z,29.40
2022-07-27T11:04:25.814Z,29.70
2022-07-27T11:07:23.524Z,29.50
2022-07-27T11:10:04.033Z,29.00
2022-07-27T11:12:32.281Z,28.80
2022-07-27T11:15:01.429Z,28.80
2022-07-27T11:20:23.591Z,28.60
2022-07-27T11:23:40.794Z,28.70
2022-07-27T11:25:38.808Z,28.70
2022-07-27T11:28:09.492Z,28.80
2022-07-27T11:30:37.261Z,28.80
2022-07-27T11:33:05.118Z,28.80
2022-07-27T11:35:32.628Z,28.70
2022-07-27T11:38:06.389Z,28.70
2022-07-27T11:40:56.429Z,28.60
2022-07-27T11:43:36.905Z,28.50
2022-07-27T11:46:11.750Z,29.10
2022-07-27T11:49:05.506Z,28.50
2022-07-27T11:51:48.581Z,28.80
2022-07-27T11:54:25.076Z,28.50
2022-07-27T11:56:57.873Z,28.50
2022-07-27T11:59:29.877Z,28.50
2022-07-27T12:02:00.106Z,28.50
2022-07-27T12:04:29.710Z,28.50
2022-07-27T12:06:59.790Z,28.60
2022-07-27T12:09:28.828Z,28.70
2022-07-27T12:12:23.486Z,28.70
2022-07-27T12:14:54.303Z,29.30
2022-07-27T12:17:35.931Z,28.50
2022-07-27T12:20:09.248Z,28.30
2022-07-27T12:22:43.958Z,28.20
2022-07-27T12:25:17.600Z,28.10
2022-07-27T12:28:01.314Z,28.10
2022-07-27T12:30:34.603Z,28.00
2022-07-27T12:33:26.033Z,28.10
2022-07-27T12:35:53.529Z,28.00
2022-07-27T12:38:20.992Z,27.90
2022-07-27T12:40:51.050Z,27.90
2022-07-27T12:43:21.144Z,27.90
2022-07-27T12:45:50.304Z,28.50
2022-07-27T12:48:28.699Z,28.00
2022-07-27T12:51:01.782Z,28.10
2022-07-27T12:53:30.068Z,28.20
2022-07-27T12:55:59.726Z,28.20
2022-07-27T12:58:27.348Z,28.20
2022-07-27T13:00:57.858Z,28.60
2022-07-27T13:03:25.483Z,28.40
2022-07-27T13:05:53.297Z,28.50
2022-07-27T13:08:21.884Z,28.50
2022-07-27T13:10:52.057Z,28.40
2022-07-27T13:13:24.984Z,28.40
2022-07-27T13:15:52.702Z,28.90
2022-07-27T13:18:23.768Z,28.40
2022-07-27T13:20:53.670Z,28.40
2022-07-27T13:23:21.302Z,28.40
2022-07-27T13:25:49.377Z,28.50
2022-07-27T13:28:16.742Z,28.50
2022-07-27T13:31:07.296Z,28.40
2022-07-27T13:33:34.626Z,28.40
2022-07-27T13:36:04.062Z,28.70
2022-07-27T13:38:31.558Z,28.40
2022-07-27T13:40:58.955Z,28.40
2022-07-27T13:43:26.379Z,28.30
2022-07-27T13:46:08.334Z,28.20
2022-07-27T13:48:36.427Z,28.10
2022-07-27T13:51:04.039Z,28.20
2022-07-27T13:53:32.422Z,27.90
2022-07-27T13:56:01.394Z,28.40
2022-07-27T13:58:30.101Z,27.90
2022-07-27T14:00:57.561Z,28.50
2022-07-27T14:03:47.914Z,27.90
2022-07-27T14:06:16.378Z,27.80
2022-07-27T14:08:44.272Z,27.70
2022-07-27T14:11:12.381Z,27.90
2022-07-27T14:13:39.803Z,27.50
2022-07-27T14:16:08.759Z,27.40
2022-07-27T14:18:36.864Z,27.50
2022-07-27T14:21:06.949Z,27.50
2022-07-27T14:23:35.515Z,27.80
2022-07-27T14:26:06.053Z,27.50
2022-07-27T14:28:33.812Z,27.60
2022-07-27T14:31:02.524Z,27.60
2022-07-27T14:33:36.614Z,27.80
2022-07-27T14:36:08.896Z,27.50
2022-07-27T14:38:37.788Z,27.50
2022-07-27T14:41:05.553Z,27.40
2022-07-27T14:43:33.224Z,27.40
2022-07-27T14:46:00.858Z,27.50
2022-07-27T14:48:48.905Z,27.40
2022-07-27T14:51:16.044Z,27.40
2022-07-27T14:53:43.424Z,27.90
2022-07-27T14:56:10.789Z,27.40
2022-07-27T14:58:38.219Z,27.90
2022-07-27T15:01:05.712Z,27.50
2022-07-27T15:03:33.346Z,27.40
2022-07-27T15:06:00.699Z,27.40
2022-07-27T15:08:28.107Z,27.50
2022-07-27T15:10:57.232Z,27.50
2022-07-27T15:13:25.163Z,27.50
2022-07-27T15:15:53.292Z,27.50
2022-07-27T15:18:20.972Z,27.40
2022-07-27T15:20:48.426Z,27.80
2022-07-27T15:23:16.592Z,27.40
2022-07-27T15:25:44.268Z,27.30
2022-07-27T15:28:12.237Z,27.20
2022-07-27T15:30:39.671Z,27.40
2022-07-27T15:33:07.361Z,27.20
2022-07-27T15:35:35.275Z,27.20
2022-07-27T15:38:02.744Z,27.10
2022-07-27T15:40:40.051Z,27.60
2022-07-27T15:43:15.180Z,26.90
2022-07-27T15:45:45.653Z,26.90
2022-07-27T15:48:13.663Z,26.90
2022-07-27T15:50:44.946Z,27.00
2022-07-27T15:53:14.126Z,27.40
2022-07-27T15:55:43.204Z,26.90
2022-07-27T15:58:11.502Z,26.90
2022-07-27T16:00:41.032Z,26.90
2022-07-27T16:03:14.799Z,27.20
2022-07-27T16:05:43.798Z,27.00
2022-07-27T16:08:11.377Z,27.00
2022-07-27T16:10:40.467Z,27.00
2022-07-27T16:13:09.345Z,27.00
2022-07-27T16:15:56.350Z,27.00
2022-07-27T16:18:24.263Z,27.00
2022-07-27T16:21:21.693Z,27.50
2022-07-27T16:23:51.107Z,27.00
2022-07-27T16:26:18.693Z,27.10
2022-07-27T16:28:48.336Z,26.90
2022-07-27T16:31:19.750Z,26.90
2022-07-27T16:33:49.148Z,27.00
2022-07-27T16:36:23.042Z,26.80
2022-07-27T16:38:51.815Z,26.30
2022-07-27T16:41:21.318Z,26.90
2022-07-27T16:43:49.230Z,27.40
2022-07-27T16:46:16.949Z,26.90
2022-07-27T16:48:45.077Z,26.90
2022-07-27T16:51:14.383Z,27.30
2022-07-27T16:53:43.990Z,27.10
2022-07-27T16:56:29.019Z,26.90
2022-07-27T16:58:56.523Z,26.90
2022-07-27T17:01:26.704Z,26.90
2022-07-27T17:03:56.652Z,26.80
2022-07-27T17:06:26.590Z,26.70
2022-07-27T17:08:54.654Z,26.90
2022-07-27T17:11:22.411Z,26.60
2022-07-27T17:13:51.194Z,26.90
2022-07-27T17:16:27.731Z,26.60
2022-07-27T17:18:55.339Z,26.60
2022-07-27T17:21:22.728Z,26.60
2022-07-27T17:23:50.078Z,27.20
2022-07-27T17:26:17.927Z,26.50
2022-07-27T17:28:45.223Z,26.50
2022-07-27T17:31:12.919Z,26.50
2022-07-27T17:33:41.161Z,26.50
2022-07-27T17:36:14.584Z,27.00
2022-07-27T17:38:46.586Z,26.50
2022-07-27T17:41:21.750Z,26.50
2022-07-27T17:43:51.957Z,26.50
2022-07-27T17:46:19.606Z,26.60
2022-07-27T17:48:47.126Z,26.50
2022-07-27T17:51:14.587Z,26.40
2022-07-27T17:53:41.941Z,26.30
2022-07-27T17:56:10.938Z,26.80
2022-07-27T17:58:38.528Z,26.30
2022-07-27T18:01:09.102Z,26.30
2022-07-27T18:03:36.934Z,26.30
2022-07-27T18:06:04.674Z,26.30
2022-07-27T18:08:32.051Z,26.30
2022-07-27T18:10:59.589Z,26.30
2022-07-27T18:13:39.211Z,26.20
2022-07-27T18:16:09.767Z,26.10
2022-07-27T18:18:38.160Z,26.70
2022-07-27T18:21:05.774Z,26.10
2022-07-27T18:23:33.247Z,26.00
2022-07-27T18:26:00.937Z,25.90
2022-07-27T18:28:28.659Z,25.90
2022-07-27T18:30:56.081Z,25.90
2022-07-27T18:33:24.799Z,25.90
2022-07-27T18:35:53.114Z,26.50
2022-07-27T18:38:22.200Z,25.90
2022-07-27T18:40:50.212Z,25.90
2022-07-27T18:43:17.863Z,25.80
2022-07-27T18:45:45.339Z,25.80
2022-07-27T18:48:12.890Z,25.70
2022-07-27T18:50:41.088Z,25.60
2022-07-27T18:53:09.094Z,25.60
2022-07-27T18:55:37.018Z,25.50
2022-07-27T18:58:05.279Z,25.70
2022-07-27T19:00:34.034Z,25.40
2022-07-27T19:03:02.652Z,25.10
2022-07-27T19:05:40.874Z,25.30
2022-07-27T19:08:13.493Z,25.40
2022-07-27T19:10:42.936Z,26.00
2022-07-27T19:13:11.848Z,25.30
2022-07-27T19:15:39.990Z,25.80
2022-07-27T19:18:08.328Z,25.60
2022-07-27T19:20:36.998Z,25.20
2022-07-27T19:23:05.657Z,25.30
2022-07-27T19:25:33.854Z,25.10
2022-07-27T19:28:02.429Z,25.10
2022-07-27T19:30:29.931Z,25.10
2022-07-27T19:32:57.540Z,25.00
2022-07-27T19:35:25.102Z,25.60
2022-07-27T19:37:52.869Z,25.20
2022-07-27T19:40:43.302Z,24.80
2022-07-27T19:43:08.002Z,24.80
2022-07-27T19:45:36.819Z,24.70
2022-07-27T19:48:05.428Z,24.70
2022-07-27T19:50:32.882Z,24.70
2022-07-27T19:53:01.742Z,24.90
2022-07-27T19:55:56.364Z,24.50
2022-07-27T19:58:23.866Z,24.80
2022-07-27T20:00:51.754Z,24.40
2022-07-27T20:03:20.537Z,24.40
2022-07-27T20:05:48.591Z,24.40
2022-07-27T20:08:16.099Z,24.30
2022-07-27T20:10:44.355Z,24.70
2022-07-27T20:13:11.685Z,24.10
2022-07-27T20:15:39.302Z,24.10
2022-07-27T20:18:07.620Z,24.00
2022-07-27T20:20:35.188Z,24.00
2022-07-27T20:23:02.603Z,24.50
2022-07-27T20:25:29.940Z,24.30
2022-07-27T20:27:57.378Z,23.80
2022-07-27T20:30:24.738Z,23.80
2022-07-27T20:32:52.537Z,23.60
2022-07-27T20:35:19.932Z,23.50
2022-07-27T20:37:47.657Z,24.00
2022-07-27T20:40:15.533Z,23.40
2022-07-27T20:42:43.405Z,23.30
2022-07-27T20:45:13.784Z,23.30
2022-07-27T20:47:42.723Z,23.70
2022-07-27T20:50:12.645Z,23.10
2022-07-27T20:52:40.546Z,23.10
2022-07-27T20:55:08.906Z,23.10
2022-07-27T20:57:36.909Z,23.00
2022-07-27T21:00:06.677Z,23.00
2022-07-27T21:02:34.569Z,23.00
2022-07-27T21:05:02.231Z,22.80
2022-07-27T21:07:30.239Z,22.80
2022-07-27T21:09:57.618Z,22.70
2022-07-27T21:12:24.920Z,22.60
2022-07-27T21:14:52.241Z,22.60
2022-07-27T21:17:19.657Z,22.60
2022-07-27T21:19:47.038Z,22.60
2022-07-27T21:22:14.383Z,22.60
2022-07-27T21:24:41.715Z,23.00
2022-07-27T21:27:11.598Z,23.10
2022-07-27T21:29:39.539Z,22.70
2022-07-27T21:32:07.110Z,22.50
2022-07-27T21:34:34.453Z,22.50
2022-07-27T21:37:24.911Z,22.90
2022-07-27T21:39:52.233Z,22.30
2022-07-27T21:42:19.565Z,22.30
2022-07-27T21:44:47.028Z,22.30
2022-07-27T21:47:14.611Z,22.20
2022-07-27T21:49:42.156Z,22.20
2022-07-27T21:52:11.247Z,22.60
2022-07-27T21:54:39.052Z,22.20
2022-07-27T21:57:06.376Z,22.10
2022-07-27T21:59:33.720Z,22.80
2022-07-27T22:02:01.156Z,22.60
2022-07-27T22:04:28.702Z,22.60
2022-07-27T22:06:56.881Z,21.90
2022-07-27T22:09:24.725Z,21.80
2022-07-27T22:11:52.112Z,21.70
2022-07-27T22:14:19.492Z,22.20
2022-07-27T22:16:47.013Z,21.60
2022-07-27T22:19:14.680Z,21.60
2022-07-27T22:21:50.800Z,21.60
2022-07-27T22:24:19.262Z,21.60
2022-07-27T22:39:07.426Z,21.40
2022-07-27T22:41:54.708Z,21.40
2022-07-27T22:44:23.565Z,21.30
2022-07-27T22:46:51.036Z,21.30
2022-07-27T22:49:18.748Z,22.00
2022-07-27T22:51:50.196Z,21.30
2022-07-27T22:54:20.872Z,21.70
2022-07-27T23:21:14.167Z,20.90
2022-07-27T23:23:53.451Z,20.90
2022-07-27T23:26:23.150Z,20.90
2022-07-27T23:28:53.932Z,20.80
2022-07-27T23:31:22.769Z,21.30
2022-07-27T23:37:19.098Z,20.90
2022-07-27T23:39:46.713Z,20.40
2022-07-27T23:42:14.210Z,20.40
2022-07-27T23:44:41.683Z,20.90
2022-07-27T23:47:09.558Z,20.80
2022-07-27T23:49:41.100Z,20.70
2022-07-27T23:52:40.999Z,20.60
2022-07-27T23:55:08.736Z,20.70
2022-07-27T23:57:36.356Z,20.70
